sensor_id;sensor_type;location;lat;lon;timestamp;P1;durP1;ratioP1;P2;durP2;ratioP2
11988;SDS011;6054;50.966;7.094;2023-12-28T00:00:11;1.55;;;1.20;;
11988;SDS011;6054;50.966;7.094;2023-12-28T00:02:40;1.85;;;1.48;;
11988;SDS011;6054;50.966;7.094;2023-12-28T00:05:07;2.65;;;1.35;;
11988;SDS011;6054;50.966;7.094;2023-12-28T00:07:33;1.10;;;1.00;;
11988;SDS011;6054;50.966;7.094;2023-12-28T00:10:00;2.20;;;1.40;;
11988;SDS011;6054;50.966;7.094;2023-12-28T00:12:27;1.20;;;1.10;;
11988;SDS011;6054;50.966;7.094;2023-12-28T00:14:54;0.90;;;0.90;;
11988;SDS011;6054;50.966;7.094;2023-12-28T00:17:21;1.55;;;1.15;;
11988;SDS011;6054;50.966;7.094;2023-12-28T00:19:49;2.58;;;1.55;;
11988;SDS011;6054;50.966;7.094;2023-12-28T00:22:16;1.40;;;1.30;;
11988;SDS011;6054;50.966;7.094;2023-12-28T00:24:43;1.58;;;1.10;;
11988;SDS011;6054;50.966;7.094;2023-12-28T00:27:10;1.27;;;1.17;;
11988;SDS011;6054;50.966;7.094;2023-12-28T00:29:36;3.55;;;1.25;;
11988;SDS011;6054;50.966;7.094;2023-12-28T00:32:04;1.55;;;1.23;;
11988;SDS011;6054;50.966;7.094;2023-12-28T00:34:31;1.98;;;0.95;;
11988;SDS011;6054;50.966;7.094;2023-12-28T00:36:59;1.30;;;1.20;;
11988;SDS011;6054;50.966;7.094;2023-12-28T00:39:26;3.05;;;1.50;;
11988;SDS011;6054;50.966;7.094;2023-12-28T00:41:53;1.23;;;1.13;;
11988;SDS011;6054;50.966;7.094;2023-12-28T00:44:19;2.78;;;1.40;;
11988;SDS011;6054;50.966;7.094;2023-12-28T00:46:46;1.20;;;1.10;;
11988;SDS011;6054;50.966;7.094;2023-12-28T00:49:13;1.50;;;1.35;;
11988;SDS011;6054;50.966;7.094;2023-12-28T00:51:40;1.23;;;1.13;;
11988;SDS011;6054;50.966;7.094;2023-12-28T00:54:08;2.60;;;1.35;;
11988;SDS011;6054;50.966;7.094;2023-12-28T00:56:35;1.83;;;1.23;;
11988;SDS011;6054;50.966;7.094;2023-12-28T00:59:02;1.85;;;1.25;;
11988;SDS011;6054;50.966;7.094;2023-12-28T01:01:28;1.25;;;1.15;;
11988;SDS011;6054;50.966;7.094;2023-12-28T01:03:55;2.17;;;1.52;;
11988;SDS011;6054;50.966;7.094;2023-12-28T01:06:22;1.58;;;1.30;;
11988;SDS011;6054;50.966;7.094;2023-12-28T01:08:52;1.42;;;1.38;;
11988;SDS011;6054;50.966;7.094;2023-12-28T01:11:20;1.67;;;1.10;;
11988;SDS011;6054;50.966;7.094;2023-12-28T01:13:47;1.30;;;1.20;;
11988;SDS011;6054;50.966;7.094;2023-12-28T01:16:14;1.20;;;1.17;;
11988;SDS011;6054;50.966;7.094;2023-12-28T01:18:41;2.17;;;1.02;;
11988;SDS011;6054;50.966;7.094;2023-12-28T01:21:08;1.38;;;1.25;;
11988;SDS011;6054;50.966;7.094;2023-12-28T01:23:35;2.50;;;1.20;;
11988;SDS011;6054;50.966;7.094;2023-12-28T01:26:03;1.20;;;1.10;;
11988;SDS011;6054;50.966;7.094;2023-12-28T01:28:31;3.10;;;1.00;;
11988;SDS011;6054;50.966;7.094;2023-12-28T01:30:58;1.10;;;1.10;;
11988;SDS011;6054;50.966;7.094;2023-12-28T01:33:24;0.95;;;0.95;;
11988;SDS011;6054;50.966;7.094;2023-12-28T01:35:51;1.33;;;1.08;;
11988;SDS011;6054;50.966;7.094;2023-12-28T01:38:18;1.25;;;1.15;;
11988;SDS011;6054;50.966;7.094;2023-12-28T01:40:45;1.00;;;1.00;;
11988;SDS011;6054;50.966;7.094;2023-12-28T01:43:12;3.20;;;1.00;;
11988;SDS011;6054;50.966;7.094;2023-12-28T01:45:40;1.00;;;1.00;;
11988;SDS011;6054;50.966;7.094;2023-12-28T01:48:07;1.08;;;1.00;;
11988;SDS011;6054;50.966;7.094;2023-12-28T01:50:34;1.95;;;0.90;;
11988;SDS011;6054;50.966;7.094;2023-12-28T01:53:02;0.75;;;0.75;;
11988;SDS011;6054;50.966;7.094;2023-12-28T01:55:29;0.85;;;0.82;;
11988;SDS011;6054;50.966;7.094;2023-12-28T01:57:57;0.80;;;0.80;;
11988;SDS011;6054;50.966;7.094;2023-12-28T02:00:24;0.85;;;0.82;;
11988;SDS011;6054;50.966;7.094;2023-12-28T02:02:53;0.95;;;0.70;;
11988;SDS011;6054;50.966;7.094;2023-12-28T02:05:20;0.65;;;0.65;;
11988;SDS011;6054;50.966;7.094;2023-12-28T02:07:47;1.35;;;1.00;;
11988;SDS011;6054;50.966;7.094;2023-12-28T02:10:14;0.60;;;0.60;;
11988;SDS011;6054;50.966;7.094;2023-12-28T02:12:41;2.05;;;0.70;;
11988;SDS011;6054;50.966;7.094;2023-12-28T02:15:09;1.00;;;0.95;;
11988;SDS011;6054;50.966;7.094;2023-12-28T02:17:37;0.77;;;0.75;;
11988;SDS011;6054;50.966;7.094;2023-12-28T02:20:11;0.85;;;0.68;;
11988;SDS011;6054;50.966;7.094;2023-12-28T02:22:38;0.63;;;0.63;;
11988;SDS011;6054;50.966;7.094;2023-12-28T02:25:08;0.63;;;0.63;;
11988;SDS011;6054;50.966;7.094;2023-12-28T02:27:38;0.40;;;0.40;;
11988;SDS011;6054;50.966;7.094;2023-12-28T02:30:06;0.60;;;0.60;;
11988;SDS011;6054;50.966;7.094;2023-12-28T02:32:39;1.15;;;0.70;;
11988;SDS011;6054;50.966;7.094;2023-12-28T02:35:16;0.60;;;0.60;;
11988;SDS011;6054;50.966;7.094;2023-12-28T02:37:46;0.60;;;0.60;;
11988;SDS011;6054;50.966;7.094;2023-12-28T02:40:18;0.60;;;0.60;;
11988;SDS011;6054;50.966;7.094;2023-12-28T02:42:45;0.75;;;0.75;;
11988;SDS011;6054;50.966;7.094;2023-12-28T02:45:12;0.63;;;0.60;;
11988;SDS011;6054;50.966;7.094;2023-12-28T02:47:39;0.75;;;0.75;;
11988;SDS011;6054;50.966;7.094;2023-12-28T02:50:06;1.02;;;0.68;;
11988;SDS011;6054;50.966;7.094;2023-12-28T02:52:33;0.60;;;0.60;;
11988;SDS011;6054;50.966;7.094;2023-12-28T02:55:00;0.80;;;0.80;;
11988;SDS011;6054;50.966;7.094;2023-12-28T02:57:28;0.77;;;0.70;;
11988;SDS011;6054;50.966;7.094;2023-12-28T02:59:55;0.65;;;0.65;;
11988;SDS011;6054;50.966;7.094;2023-12-28T03:02:26;1.98;;;0.60;;
11988;SDS011;6054;50.966;7.094;2023-12-28T03:04:54;2.38;;;0.80;;
11988;SDS011;6054;50.966;7.094;2023-12-28T03:07:21;0.75;;;0.75;;
11988;SDS011;6054;50.966;7.094;2023-12-28T03:09:48;0.80;;;0.80;;
11988;SDS011;6054;50.966;7.094;2023-12-28T03:12:14;0.52;;;0.52;;
11988;SDS011;6054;50.966;7.094;2023-12-28T03:14:43;0.60;;;0.60;;
11988;SDS011;6054;50.966;7.094;2023-12-28T03:17:10;0.80;;;0.80;;
11988;SDS011;6054;50.966;7.094;2023-12-28T03:19:37;0.70;;;0.70;;
11988;SDS011;6054;50.966;7.094;2023-12-28T03:22:04;0.77;;;0.77;;
11988;SDS011;6054;50.966;7.094;2023-12-28T03:24:31;0.70;;;0.70;;
11988;SDS011;6054;50.966;7.094;2023-12-28T03:26:58;0.75;;;0.75;;
11988;SDS011;6054;50.966;7.094;2023-12-28T03:29:24;0.88;;;0.82;;
11988;SDS011;6054;50.966;7.094;2023-12-28T03:31:52;1.13;;;0.73;;
11988;SDS011;6054;50.966;7.094;2023-12-28T03:34:19;2.40;;;1.15;;
11988;SDS011;6054;50.966;7.094;2023-12-28T03:36:47;1.45;;;0.88;;
11988;SDS011;6054;50.966;7.094;2023-12-28T03:39:14;0.70;;;0.70;;
11988;SDS011;6054;50.966;7.094;2023-12-28T03:41:41;0.90;;;0.90;;
11988;SDS011;6054;50.966;7.094;2023-12-28T03:44:07;0.73;;;0.70;;
11988;SDS011;6054;50.966;7.094;2023-12-28T03:46:34;1.10;;;1.00;;
11988;SDS011;6054;50.966;7.094;2023-12-28T03:49:02;0.80;;;0.80;;
11988;SDS011;6054;50.966;7.094;2023-12-28T03:51:29;0.93;;;0.82;;
11988;SDS011;6054;50.966;7.094;2023-12-28T03:53:55;1.58;;;1.00;;
11988;SDS011;6054;50.966;7.094;2023-12-28T03:56:23;0.73;;;0.73;;
11988;SDS011;6054;50.966;7.094;2023-12-28T03:58:52;0.80;;;0.80;;
11988;SDS011;6054;50.966;7.094;2023-12-28T04:01:20;1.10;;;0.93;;
11988;SDS011;6054;50.966;7.094;2023-12-28T04:03:48;0.65;;;0.65;;
11988;SDS011;6054;50.966;7.094;2023-12-28T04:06:16;1.33;;;0.90;;
11988;SDS011;6054;50.966;7.094;2023-12-28T04:08:43;3.60;;;1.10;;
11988;SDS011;6054;50.966;7.094;2023-12-28T04:11:09;1.60;;;1.00;;
11988;SDS011;6054;50.966;7.094;2023-12-28T04:13:36;1.20;;;1.17;;
11988;SDS011;6054;50.966;7.094;2023-12-28T04:16:04;2.08;;;1.10;;
11988;SDS011;6054;50.966;7.094;2023-12-28T04:18:31;1.25;;;1.15;;
11988;SDS011;6054;50.966;7.094;2023-12-28T04:20:58;0.98;;;0.98;;
11988;SDS011;6054;50.966;7.094;2023-12-28T04:23:26;0.70;;;0.70;;
11988;SDS011;6054;50.966;7.094;2023-12-28T04:25:53;1.67;;;1.05;;
11988;SDS011;6054;50.966;7.094;2023-12-28T04:28:20;1.75;;;1.13;;
11988;SDS011;6054;50.966;7.094;2023-12-28T04:30:46;1.00;;;1.00;;
11988;SDS011;6054;50.966;7.094;2023-12-28T04:33:16;1.13;;;1.02;;
11988;SDS011;6054;50.966;7.094;2023-12-28T04:35:43;1.00;;;0.82;;
11988;SDS011;6054;50.966;7.094;2023-12-28T04:38:10;2.55;;;1.02;;
11988;SDS011;6054;50.966;7.094;2023-12-28T04:40:38;1.48;;;0.90;;
11988;SDS011;6054;50.966;7.094;2023-12-28T04:43:05;2.05;;;1.00;;
11988;SDS011;6054;50.966;7.094;2023-12-28T04:45:32;2.10;;;1.02;;
11988;SDS011;6054;50.966;7.094;2023-12-28T04:48:05;0.82;;;0.82;;
11988;SDS011;6054;50.966;7.094;2023-12-28T04:50:33;1.10;;;1.10;;
11988;SDS011;6054;50.966;7.094;2023-12-28T04:53:03;1.25;;;1.15;;
11988;SDS011;6054;50.966;7.094;2023-12-28T04:55:30;0.90;;;0.90;;
11988;SDS011;6054;50.966;7.094;2023-12-28T04:57:58;1.10;;;0.85;;
11988;SDS011;6054;50.966;7.094;2023-12-28T05:00:24;1.08;;;1.08;;
11988;SDS011;6054;50.966;7.094;2023-12-28T05:02:51;0.88;;;0.88;;
11988;SDS011;6054;50.966;7.094;2023-12-28T05:05:18;1.20;;;1.10;;
11988;SDS011;6054;50.966;7.094;2023-12-28T05:07:45;1.77;;;1.10;;
11988;SDS011;6054;50.966;7.094;2023-12-28T05:10:11;2.45;;;1.00;;
11988;SDS011;6054;50.966;7.094;2023-12-28T05:12:38;1.00;;;1.00;;
11988;SDS011;6054;50.966;7.094;2023-12-28T05:15:07;1.25;;;1.10;;
11988;SDS011;6054;50.966;7.094;2023-12-28T05:17:34;1.33;;;1.00;;
11988;SDS011;6054;50.966;7.094;2023-12-28T05:20:01;0.80;;;0.80;;
11988;SDS011;6054;50.966;7.094;2023-12-28T05:22:27;1.60;;;1.02;;
11988;SDS011;6054;50.966;7.094;2023-12-28T05:24:54;1.58;;;1.23;;
11988;SDS011;6054;50.966;7.094;2023-12-28T05:27:21;1.63;;;1.10;;
11988;SDS011;6054;50.966;7.094;2023-12-28T05:29:48;1.20;;;0.90;;
11988;SDS011;6054;50.966;7.094;2023-12-28T05:32:16;1.45;;;1.02;;
11988;SDS011;6054;50.966;7.094;2023-12-28T05:34:43;5.57;;;1.25;;
11988;SDS011;6054;50.966;7.094;2023-12-28T05:37:09;0.90;;;0.90;;
11988;SDS011;6054;50.966;7.094;2023-12-28T05:39:36;1.95;;;1.30;;
11988;SDS011;6054;50.966;7.094;2023-12-28T05:42:03;1.77;;;1.40;;
11988;SDS011;6054;50.966;7.094;2023-12-28T05:44:30;3.55;;;1.17;;
11988;SDS011;6054;50.966;7.094;2023-12-28T05:46:57;2.22;;;1.33;;
11988;SDS011;6054;50.966;7.094;2023-12-28T05:49:25;1.70;;;1.20;;
11988;SDS011;6054;50.966;7.094;2023-12-28T05:51:53;1.55;;;1.15;;
11988;SDS011;6054;50.966;7.094;2023-12-28T05:54:20;1.70;;;1.10;;
11988;SDS011;6054;50.966;7.094;2023-12-28T05:56:47;4.70;;;1.13;;
11988;SDS011;6054;50.966;7.094;2023-12-28T05:59:13;2.15;;;1.20;;
11988;SDS011;6054;50.966;7.094;2023-12-28T06:01:43;1.65;;;1.20;;
11988;SDS011;6054;50.966;7.094;2023-12-28T06:04:10;2.72;;;1.23;;
11988;SDS011;6054;50.966;7.094;2023-12-28T06:06:38;3.50;;;1.25;;
11988;SDS011;6054;50.966;7.094;2023-12-28T06:09:05;1.48;;;1.38;;
11988;SDS011;6054;50.966;7.094;2023-12-28T06:11:32;1.38;;;1.20;;
11988;SDS011;6054;50.966;7.094;2023-12-28T06:13:59;1.40;;;1.30;;
11988;SDS011;6054;50.966;7.094;2023-12-28T06:16:26;2.15;;;1.45;;
11988;SDS011;6054;50.966;7.094;2023-12-28T06:18:57;1.50;;;1.10;;
11988;SDS011;6054;50.966;7.094;2023-12-28T06:21:24;1.75;;;1.30;;
11988;SDS011;6054;50.966;7.094;2023-12-28T06:23:52;2.03;;;1.58;;
11988;SDS011;6054;50.966;7.094;2023-12-28T06:26:20;1.80;;;1.40;;
11988;SDS011;6054;50.966;7.094;2023-12-28T06:28:47;1.50;;;1.27;;
11988;SDS011;6054;50.966;7.094;2023-12-28T06:31:14;2.08;;;1.30;;
11988;SDS011;6054;50.966;7.094;2023-12-28T06:33:40;2.25;;;1.17;;
11988;SDS011;6054;50.966;7.094;2023-12-28T06:36:09;2.45;;;1.20;;
11988;SDS011;6054;50.966;7.094;2023-12-28T06:38:36;3.15;;;1.17;;
11988;SDS011;6054;50.966;7.094;2023-12-28T06:41:10;1.70;;;1.33;;
11988;SDS011;6054;50.966;7.094;2023-12-28T06:43:37;2.35;;;1.25;;
11988;SDS011;6054;50.966;7.094;2023-12-28T06:46:04;2.85;;;1.52;;
11988;SDS011;6054;50.966;7.094;2023-12-28T06:48:31;1.30;;;1.20;;
11988;SDS011;6054;50.966;7.094;2023-12-28T06:50:57;2.67;;;1.48;;
11988;SDS011;6054;50.966;7.094;2023-12-28T06:53:24;2.38;;;1.20;;
11988;SDS011;6054;50.966;7.094;2023-12-28T06:55:51;1.50;;;1.23;;
11988;SDS011;6054;50.966;7.094;2023-12-28T06:58:19;1.33;;;1.23;;
11988;SDS011;6054;50.966;7.094;2023-12-28T07:00:46;1.35;;;1.20;;
11988;SDS011;6054;50.966;7.094;2023-12-28T07:03:13;2.53;;;1.30;;
11988;SDS011;6054;50.966;7.094;2023-12-28T07:05:40;1.35;;;1.27;;
11988;SDS011;6054;50.966;7.094;2023-12-28T07:08:06;2.50;;;1.50;;
11988;SDS011;6054;50.966;7.094;2023-12-28T07:10:33;1.38;;;1.27;;
11988;SDS011;6054;50.966;7.094;2023-12-28T07:13:00;2.20;;;1.40;;
11988;SDS011;6054;50.966;7.094;2023-12-28T07:15:29;3.35;;;1.38;;
11988;SDS011;6054;50.966;7.094;2023-12-28T07:17:56;3.15;;;1.45;;
11988;SDS011;6054;50.966;7.094;2023-12-28T07:20:22;2.13;;;1.38;;
11988;SDS011;6054;50.966;7.094;2023-12-28T07:22:49;1.73;;;1.20;;
11988;SDS011;6054;50.966;7.094;2023-12-28T07:25:16;2.00;;;1.30;;
11988;SDS011;6054;50.966;7.094;2023-12-28T07:27:43;2.53;;;1.50;;
11988;SDS011;6054;50.966;7.094;2023-12-28T07:30:10;1.35;;;1.05;;
11988;SDS011;6054;50.966;7.094;2023-12-28T07:32:39;4.82;;;1.10;;
11988;SDS011;6054;50.966;7.094;2023-12-28T07:35:06;2.20;;;1.20;;
11988;SDS011;6054;50.966;7.094;2023-12-28T07:37:33;1.80;;;1.55;;
11988;SDS011;6054;50.966;7.094;2023-12-28T07:40:00;1.52;;;1.25;;
11988;SDS011;6054;50.966;7.094;2023-12-28T07:42:27;2.85;;;1.10;;
11988;SDS011;6054;50.966;7.094;2023-12-28T07:44:53;1.55;;;1.40;;
11988;SDS011;6054;50.966;7.094;2023-12-28T07:47:20;4.50;;;1.45;;
11988;SDS011;6054;50.966;7.094;2023-12-28T07:49:48;1.13;;;1.02;;
11988;SDS011;6054;50.966;7.094;2023-12-28T07:52:15;1.65;;;1.20;;
11988;SDS011;6054;50.966;7.094;2023-12-28T07:54:42;1.55;;;1.20;;
11988;SDS011;6054;50.966;7.094;2023-12-28T07:57:09;2.25;;;1.30;;
11988;SDS011;6054;50.966;7.094;2023-12-28T07:59:36;2.20;;;1.13;;
11988;SDS011;6054;50.966;7.094;2023-12-28T08:02:02;2.03;;;1.20;;
11988;SDS011;6054;50.966;7.094;2023-12-28T08:04:29;1.95;;;1.15;;
11988;SDS011;6054;50.966;7.094;2023-12-28T08:06:57;2.83;;;1.30;;
11988;SDS011;6054;50.966;7.094;2023-12-28T08:09:24;3.45;;;1.55;;
11988;SDS011;6054;50.966;7.094;2023-12-28T08:11:51;3.67;;;1.55;;
11988;SDS011;6054;50.966;7.094;2023-12-28T08:14:18;2.63;;;1.40;;
11988;SDS011;6054;50.966;7.094;2023-12-28T08:16:45;4.13;;;1.60;;
11988;SDS011;6054;50.966;7.094;2023-12-28T08:19:12;2.45;;;1.30;;
11988;SDS011;6054;50.966;7.094;2023-12-28T08:21:39;2.65;;;1.30;;
11988;SDS011;6054;50.966;7.094;2023-12-28T08:24:07;2.90;;;1.40;;
11988;SDS011;6054;50.966;7.094;2023-12-28T08:26:34;1.58;;;1.40;;
11988;SDS011;6054;50.966;7.094;2023-12-28T08:29:00;2.75;;;1.55;;
11988;SDS011;6054;50.966;7.094;2023-12-28T08:31:28;2.80;;;1.60;;
11988;SDS011;6054;50.966;7.094;2023-12-28T08:33:55;2.97;;;1.50;;
11988;SDS011;6054;50.966;7.094;2023-12-28T08:36:22;1.98;;;1.30;;
11988;SDS011;6054;50.966;7.094;2023-12-28T08:38:49;3.95;;;1.55;;
11988;SDS011;6054;50.966;7.094;2023-12-28T08:41:20;1.55;;;1.20;;
11988;SDS011;6054;50.966;7.094;2023-12-28T08:43:49;2.17;;;1.58;;
11988;SDS011;6054;50.966;7.094;2023-12-28T08:46:15;1.90;;;1.20;;
11988;SDS011;6054;50.966;7.094;2023-12-28T08:48:42;3.88;;;1.40;;
11988;SDS011;6054;50.966;7.094;2023-12-28T08:51:09;2.90;;;1.60;;
11988;SDS011;6054;50.966;7.094;2023-12-28T08:53:36;2.88;;;1.20;;
11988;SDS011;6054;50.966;7.094;2023-12-28T08:56:12;3.28;;;1.38;;
11988;SDS011;6054;50.966;7.094;2023-12-28T08:58:41;2.13;;;1.17;;
11988;SDS011;6054;50.966;7.094;2023-12-28T09:01:07;2.40;;;1.05;;
11988;SDS011;6054;50.966;7.094;2023-12-28T09:03:34;2.75;;;0.93;;
11988;SDS011;6054;50.966;7.094;2023-12-28T09:06:01;1.55;;;1.13;;
11988;SDS011;6054;50.966;7.094;2023-12-28T09:08:28;3.88;;;1.30;;
11988;SDS011;6054;50.966;7.094;2023-12-28T09:10:54;3.25;;;1.38;;
11988;SDS011;6054;50.966;7.094;2023-12-28T09:13:21;2.33;;;1.33;;
11988;SDS011;6054;50.966;7.094;2023-12-28T09:15:49;3.95;;;1.90;;
11988;SDS011;6054;50.966;7.094;2023-12-28T09:18:16;3.42;;;1.27;;
11988;SDS011;6054;50.966;7.094;2023-12-28T09:20:43;4.50;;;1.70;;
11988;SDS011;6054;50.966;7.094;2023-12-28T09:23:10;2.75;;;1.30;;
11988;SDS011;6054;50.966;7.094;2023-12-28T09:25:40;2.88;;;1.20;;
11988;SDS011;6054;50.966;7.094;2023-12-28T09:28:10;2.45;;;1.60;;
11988;SDS011;6054;50.966;7.094;2023-12-28T09:30:40;6.32;;;1.70;;
11988;SDS011;6054;50.966;7.094;2023-12-28T09:33:23;3.70;;;1.35;;
11988;SDS011;6054;50.966;7.094;2023-12-28T09:35:50;2.63;;;1.05;;
11988;SDS011;6054;50.966;7.094;2023-12-28T09:38:18;8.13;;;2.00;;
11988;SDS011;6054;50.966;7.094;2023-12-28T09:40:52;2.75;;;1.25;;
11988;SDS011;6054;50.966;7.094;2023-12-28T09:43:31;3.17;;;1.38;;
11988;SDS011;6054;50.966;7.094;2023-12-28T09:46:05;4.57;;;1.38;;
11988;SDS011;6054;50.966;7.094;2023-12-28T09:48:38;2.03;;;1.35;;
11988;SDS011;6054;50.966;7.094;2023-12-28T09:51:07;4.03;;;1.45;;
11988;SDS011;6054;50.966;7.094;2023-12-28T09:53:40;3.58;;;1.30;;
11988;SDS011;6054;50.966;7.094;2023-12-28T09:56:19;7.00;;;1.30;;
11988;SDS011;6054;50.966;7.094;2023-12-28T09:58:48;3.10;;;1.45;;
11988;SDS011;6054;50.966;7.094;2023-12-28T10:01:20;3.20;;;1.55;;
11988;SDS011;6054;50.966;7.094;2023-12-28T10:04:03;2.20;;;1.50;;
11988;SDS011;6054;50.966;7.094;2023-12-28T10:06:51;6.70;;;1.60;;
11988;SDS011;6054;50.966;7.094;2023-12-28T10:09:23;4.70;;;1.40;;
11988;SDS011;6054;50.966;7.094;2023-12-28T10:11:52;4.22;;;1.33;;
11988;SDS011;6054;50.966;7.094;2023-12-28T10:14:33;3.13;;;1.63;;
11988;SDS011;6054;50.966;7.094;2023-12-28T10:17:14;3.13;;;1.30;;
11988;SDS011;6054;50.966;7.094;2023-12-28T10:19:42;2.60;;;1.23;;
11988;SDS011;6054;50.966;7.094;2023-12-28T10:22:13;4.93;;;1.58;;
11988;SDS011;6054;50.966;7.094;2023-12-28T10:24:40;2.75;;;1.23;;
11988;SDS011;6054;50.966;7.094;2023-12-28T10:27:15;3.33;;;1.20;;
11988;SDS011;6054;50.966;7.094;2023-12-28T10:29:42;5.57;;;1.73;;
11988;SDS011;6054;50.966;7.094;2023-12-28T10:32:15;2.90;;;1.50;;
11988;SDS011;6054;50.966;7.094;2023-12-28T10:34:45;4.68;;;1.25;;
11988;SDS011;6054;50.966;7.094;2023-12-28T10:37:19;3.95;;;1.27;;
11988;SDS011;6054;50.966;7.094;2023-12-28T10:39:51;2.90;;;1.40;;
11988;SDS011;6054;50.966;7.094;2023-12-28T10:42:22;7.57;;;1.30;;
11988;SDS011;6054;50.966;7.094;2023-12-28T10:44:56;2.78;;;1.50;;
11988;SDS011;6054;50.966;7.094;2023-12-28T10:47:36;3.17;;;1.00;;
11988;SDS011;6054;50.966;7.094;2023-12-28T10:50:08;3.28;;;1.20;;
11988;SDS011;6054;50.966;7.094;2023-12-28T10:52:39;7.28;;;1.67;;
11988;SDS011;6054;50.966;7.094;2023-12-28T10:55:18;4.65;;;1.48;;
11988;SDS011;6054;50.966;7.094;2023-12-28T10:57:58;3.85;;;1.10;;
11988;SDS011;6054;50.966;7.094;2023-12-28T11:00:41;3.22;;;1.05;;
11988;SDS011;6054;50.966;7.094;2023-12-28T11:03:18;6.00;;;1.80;;
11988;SDS011;6054;50.966;7.094;2023-12-28T11:05:55;3.65;;;1.17;;
11988;SDS011;6054;50.966;7.094;2023-12-28T11:08:23;4.50;;;1.30;;
11988;SDS011;6054;50.966;7.094;2023-12-28T11:10:52;2.33;;;1.60;;
11988;SDS011;6054;50.966;7.094;2023-12-28T11:13:20;3.33;;;1.55;;
11988;SDS011;6054;50.966;7.094;2023-12-28T11:15:54;4.85;;;1.13;;
11988;SDS011;6054;50.966;7.094;2023-12-28T11:18:24;2.90;;;1.10;;
11988;SDS011;6054;50.966;7.094;2023-12-28T11:20:56;4.28;;;1.45;;
11988;SDS011;6054;50.966;7.094;2023-12-28T11:23:34;6.50;;;1.38;;
11988;SDS011;6054;50.966;7.094;2023-12-28T11:26:01;4.00;;;1.23;;
11988;SDS011;6054;50.966;7.094;2023-12-28T11:28:28;6.68;;;1.77;;
11988;SDS011;6054;50.966;7.094;2023-12-28T11:30:58;4.47;;;1.77;;
11988;SDS011;6054;50.966;7.094;2023-12-28T11:33:30;6.13;;;1.17;;
11988;SDS011;6054;50.966;7.094;2023-12-28T11:36:03;3.47;;;1.30;;
11988;SDS011;6054;50.966;7.094;2023-12-28T11:38:34;6.38;;;1.20;;
11988;SDS011;6054;50.966;7.094;2023-12-28T11:41:17;6.15;;;1.42;;
11988;SDS011;6054;50.966;7.094;2023-12-28T11:43:52;4.72;;;1.73;;
11988;SDS011;6054;50.966;7.094;2023-12-28T11:46:39;2.85;;;1.27;;
11988;SDS011;6054;50.966;7.094;2023-12-28T11:49:09;4.13;;;1.63;;
11988;SDS011;6054;50.966;7.094;2023-12-28T11:51:53;4.72;;;1.33;;
11988;SDS011;6054;50.966;7.094;2023-12-28T11:54:24;3.00;;;1.00;;
11988;SDS011;6054;50.966;7.094;2023-12-28T11:57:05;3.78;;;1.17;;
11988;SDS011;6054;50.966;7.094;2023-12-28T11:59:32;4.93;;;1.30;;
11988;SDS011;6054;50.966;7.094;2023-12-28T12:02:07;3.72;;;1.40;;
11988;SDS011;6054;50.966;7.094;2023-12-28T12:04:37;5.18;;;1.20;;
11988;SDS011;6054;50.966;7.094;2023-12-28T12:07:08;5.03;;;1.42;;
11988;SDS011;6054;50.966;7.094;2023-12-28T12:09:38;3.08;;;1.33;;
11988;SDS011;6054;50.966;7.094;2023-12-28T12:12:24;6.22;;;1.23;;
11988;SDS011;6054;50.966;7.094;2023-12-28T12:14:54;4.47;;;1.17;;
11988;SDS011;6054;50.966;7.094;2023-12-28T12:17:25;6.18;;;1.60;;
11988;SDS011;6054;50.966;7.094;2023-12-28T12:19:52;2.95;;;1.00;;
11988;SDS011;6054;50.966;7.094;2023-12-28T12:22:24;7.10;;;1.30;;
11988;SDS011;6054;50.966;7.094;2023-12-28T12:24:51;5.47;;;1.65;;
11988;SDS011;6054;50.966;7.094;2023-12-28T12:27:25;3.20;;;1.35;;
11988;SDS011;6054;50.966;7.094;2023-12-28T12:29:58;5.60;;;1.27;;
11988;SDS011;6054;50.966;7.094;2023-12-28T12:32:25;4.32;;;1.60;;
11988;SDS011;6054;50.966;7.094;2023-12-28T12:35:03;3.40;;;1.30;;
11988;SDS011;6054;50.966;7.094;2023-12-28T12:37:35;4.80;;;1.20;;
11988;SDS011;6054;50.966;7.094;2023-12-28T12:40:17;4.35;;;1.33;;
11988;SDS011;6054;50.966;7.094;2023-12-28T12:42:51;3.97;;;1.13;;
11988;SDS011;6054;50.966;7.094;2023-12-28T12:45:19;3.00;;;1.25;;
11988;SDS011;6054;50.966;7.094;2023-12-28T12:47:46;4.50;;;0.93;;
11988;SDS011;6054;50.966;7.094;2023-12-28T12:50:16;4.50;;;1.77;;
11988;SDS011;6054;50.966;7.094;2023-12-28T12:52:50;2.78;;;1.10;;
11988;SDS011;6054;50.966;7.094;2023-12-28T12:55:25;4.75;;;1.13;;
11988;SDS011;6054;50.966;7.094;2023-12-28T12:57:51;2.67;;;1.20;;
11988;SDS011;6054;50.966;7.094;2023-12-28T13:00:28;3.85;;;1.20;;
11988;SDS011;6054;50.966;7.094;2023-12-28T13:02:55;3.03;;;1.15;;
11988;SDS011;6054;50.966;7.094;2023-12-28T13:05:25;5.03;;;1.13;;
11988;SDS011;6054;50.966;7.094;2023-12-28T13:08:01;4.80;;;1.17;;
11988;SDS011;6054;50.966;7.094;2023-12-28T13:10:42;3.03;;;1.17;;
11988;SDS011;6054;50.966;7.094;2023-12-28T13:13:10;3.42;;;1.08;;
11988;SDS011;6054;50.966;7.094;2023-12-28T13:15:41;3.10;;;0.90;;
11988;SDS011;6054;50.966;7.094;2023-12-28T13:18:14;5.95;;;1.15;;
11988;SDS011;6054;50.966;7.094;2023-12-28T13:20:41;3.58;;;1.02;;
11988;SDS011;6054;50.966;7.094;2023-12-28T13:23:20;5.82;;;1.13;;
11988;SDS011;6054;50.966;7.094;2023-12-28T13:25:52;5.90;;;1.27;;
11988;SDS011;6054;50.966;7.094;2023-12-28T13:28:20;4.05;;;1.25;;
11988;SDS011;6054;50.966;7.094;2023-12-28T13:30:47;4.43;;;1.05;;
11988;SDS011;6054;50.966;7.094;2023-12-28T13:33:20;3.15;;;1.20;;
11988;SDS011;6054;50.966;7.094;2023-12-28T13:35:55;8.65;;;1.30;;
11988;SDS011;6054;50.966;7.094;2023-12-28T13:38:24;5.47;;;1.00;;
11988;SDS011;6054;50.966;7.094;2023-12-28T13:40:56;1.52;;;1.23;;
11988;SDS011;6054;50.966;7.094;2023-12-28T13:43:34;3.25;;;0.93;;
11988;SDS011;6054;50.966;7.094;2023-12-28T13:46:04;4.72;;;1.50;;
11988;SDS011;6054;50.966;7.094;2023-12-28T13:48:39;4.85;;;0.95;;
11988;SDS011;6054;50.966;7.094;2023-12-28T13:51:08;5.18;;;1.10;;
11988;SDS011;6054;50.966;7.094;2023-12-28T13:53:58;3.92;;;1.00;;
11988;SDS011;6054;50.966;7.094;2023-12-28T13:56:25;6.15;;;1.50;;
11988;SDS011;6054;50.966;7.094;2023-12-28T13:58:54;3.78;;;1.23;;
11988;SDS011;6054;50.966;7.094;2023-12-28T14:01:21;4.32;;;1.23;;
11988;SDS011;6054;50.966;7.094;2023-12-28T14:03:48;3.25;;;1.42;;
11988;SDS011;6054;50.966;7.094;2023-12-28T14:06:23;5.05;;;1.27;;
11988;SDS011;6054;50.966;7.094;2023-12-28T14:08:53;5.25;;;1.45;;
11988;SDS011;6054;50.966;7.094;2023-12-28T14:11:22;5.03;;;1.60;;
11988;SDS011;6054;50.966;7.094;2023-12-28T14:13:56;5.10;;;1.45;;
11988;SDS011;6054;50.966;7.094;2023-12-28T14:19:13;2.95;;;1.08;;
11988;SDS011;6054;50.966;7.094;2023-12-28T14:21:49;4.88;;;1.02;;
11988;SDS011;6054;50.966;7.094;2023-12-28T14:24:26;5.60;;;1.73;;
11988;SDS011;6054;50.966;7.094;2023-12-28T14:26:55;6.95;;;1.20;;
11988;SDS011;6054;50.966;7.094;2023-12-28T14:29:23;6.43;;;1.23;;
11988;SDS011;6054;50.966;7.094;2023-12-28T14:31:50;5.60;;;1.40;;
11988;SDS011;6054;50.966;7.094;2023-12-28T14:34:20;4.53;;;1.35;;
11988;SDS011;6054;50.966;7.094;2023-12-28T14:36:48;4.15;;;1.23;;
11988;SDS011;6054;50.966;7.094;2023-12-28T14:39:22;6.38;;;1.20;;
11988;SDS011;6054;50.966;7.094;2023-12-28T14:41:56;6.57;;;1.15;;
11988;SDS011;6054;50.966;7.094;2023-12-28T14:44:28;4.60;;;1.13;;
11988;SDS011;6054;50.966;7.094;2023-12-28T14:47:12;2.67;;;0.80;;
11988;SDS011;6054;50.966;7.094;2023-12-28T14:49:39;2.55;;;1.10;;
11988;SDS011;6054;50.966;7.094;2023-12-28T14:52:09;3.17;;;0.90;;
11988;SDS011;6054;50.966;7.094;2023-12-28T14:54:42;2.45;;;1.13;;
11988;SDS011;6054;50.966;7.094;2023-12-28T14:57:15;4.40;;;1.10;;
11988;SDS011;6054;50.966;7.094;2023-12-28T14:59:52;2.58;;;1.00;;
11988;SDS011;6054;50.966;7.094;2023-12-28T15:02:45;5.40;;;1.00;;
11988;SDS011;6054;50.966;7.094;2023-12-28T15:05:15;5.45;;;1.63;;
11988;SDS011;6054;50.966;7.094;2023-12-28T15:07:57;2.60;;;1.30;;
11988;SDS011;6054;50.966;7.094;2023-12-28T15:10:31;4.93;;;1.40;;
11988;SDS011;6054;50.966;7.094;2023-12-28T15:13:20;4.43;;;1.45;;
11988;SDS011;6054;50.966;7.094;2023-12-28T15:15:51;4.45;;;1.60;;